sensor_id;sensor_type;location;lat;lon;timestamp;P1;P2;P0
61815;PMS5003;57055;-35.296;149.168;2023-04-22T00:00:04;3;3;
61815;PMS5003;57055;-35.296;149.168;2023-04-22T00:02:33;3;3;
61815;PMS5003;57055;-35.296;149.168;2023-04-22T00:05:02;4;2;
61815;PMS5003;57055;-35.296;149.168;2023-04-22T00:07:31;4;4;
61815;PMS5003;57055;-35.296;149.168;2023-04-22T00:10:01;3;3;
61815;PMS5003;57055;-35.296;149.168;2023-04-22T00:12:30;3;3;
61815;PMS5003;57055;-35.296;149.168;2023-04-22T00:14:59;3;3;
61815;PMS5003;57055;-35.296;149.168;2023-04-22T00:17:28;2;1;
61815;PMS5003;57055;-35.296;149.168;2023-04-22T00:19:56;3;3;
61815;PMS5003;57055;-35.296;149.168;2023-04-22T00:22:25;1;1;
61815;PMS5003;57055;-35.296;149.168;2023-04-22T00:24:54;2;1;
61815;PMS5003;57055;-35.296;149.168;2023-04-22T00:27:23;2;2;
61815;PMS5003;57055;-35.296;149.168;2023-04-22T00:29:52;1;1;
61815;PMS5003;57055;-35.296;149.168;2023-04-22T00:32:21;2;2;
61815;PMS5003;57055;-35.296;149.168;2023-04-22T00:34:49;2;2;
61815;PMS5003;57055;-35.296;149.168;2023-04-22T00:37:18;2;2;
61815;PMS5003;57055;-35.296;149.168;2023-04-22T00:39:47;3;3;
61815;PMS5003;57055;-35.296;149.168;2023-04-22T00:42:15;2;2;
61815;PMS5003;57055;-35.296;149.168;2023-04-22T00:44:46;2;2;
61815;PMS5003;57055;-35.296;149.168;2023-04-22T00:47:17;2;2;
61815;PMS5003;57055;-35.296;149.168;2023-04-22T00:49:47;2;2;
61815;PMS5003;57055;-35.296;149.168;2023-04-22T00:52:17;3;3;
61815;PMS5003;57055;-35.296;149.168;2023-04-22T00:54:46;2;2;
61815;PMS5003;57055;-35.296;149.168;2023-04-22T00:57:15;2;2;
61815;PMS5003;57055;-35.296;149.168;2023-04-22T00:59:45;2;1;
61815;PMS5003;57055;-35.296;149.168;2023-04-22T01:02:14;2;2;
61815;PMS5003;57055;-35.296;149.168;2023-04-22T01:04:43;4;2;
61815;PMS5003;57055;-35.296;149.168;2023-04-22T01:07:12;1;1;
61815;PMS5003;57055;-35.296;149.168;2023-04-22T01:09:41;5;3;
61815;PMS5003;57055;-35.296;149.168;2023-04-22T01:12:11;2;2;
61815;PMS5003;57055;-35.296;149.168;2023-04-22T01:14:39;3;3;
61815;PMS5003;57055;-35.296;149.168;2023-04-22T01:17:09;1;1;
61815;PMS5003;57055;-35.296;149.168;2023-04-22T01:19:38;5;3;
61815;PMS5003;57055;-35.296;149.168;2023-04-22T01:22:07;2;2;
61815;PMS5003;57055;-35.296;149.168;2023-04-22T01:24:38;1;1;
61815;PMS5003;57055;-35.296;149.168;2023-04-22T01:27:08;2;2;
61815;PMS5003;57055;-35.296;149.168;2023-04-22T01:29:38;1;1;
61815;PMS5003;57055;-35.296;149.168;2023-04-22T01:32:07;2;2;
61815;PMS5003;57055;-35.296;149.168;2023-04-22T01:34:35;2;2;
61815;PMS5003;57055;-35.296;149.168;2023-04-22T01:37:05;4;3;
61815;PMS5003;57055;-35.296;149.168;2023-04-22T01:39:34;4;4;
61815;PMS5003;57055;-35.296;149.168;2023-04-22T01:42:04;1;1;
61815;PMS5003;57055;-35.296;149.168;2023-04-22T01:44:33;2;2;
61815;PMS5003;57055;-35.296;149.168;2023-04-22T01:47:02;3;3;
61815;PMS5003;57055;-35.296;149.168;2023-04-22T01:49:31;4;3;
61815;PMS5003;57055;-35.296;149.168;2023-04-22T01:52:00;2;2;
61815;PMS5003;57055;-35.296;149.168;2023-04-22T01:54:28;2;2;
61815;PMS5003;57055;-35.296;149.168;2023-04-22T01:56:58;3;3;
61815;PMS5003;57055;-35.296;149.168;2023-04-22T01:59:33;1;1;
61815;PMS5003;57055;-35.296;149.168;2023-04-22T02:02:02;3;3;
61815;PMS5003;57055;-35.296;149.168;2023-04-22T02:04:31;3;2;
61815;PMS5003;57055;-35.296;149.168;2023-04-22T02:07:00;2;2;
61815;PMS5003;57055;-35.296;149.168;2023-04-22T02:09:29;1;1;
61815;PMS5003;57055;-35.296;149.168;2023-04-22T02:11:58;2;2;
61815;PMS5003;57055;-35.296;149.168;2023-04-22T02:14:28;3;3;
61815;PMS5003;57055;-35.296;149.168;2023-04-22T02:16:56;3;3;
61815;PMS5003;57055;-35.296;149.168;2023-04-22T02:19:25;5;2;
61815;PMS5003;57055;-35.296;149.168;2023-04-22T02:21:53;3;3;
61815;PMS5003;57055;-35.296;149.168;2023-04-22T02:24:23;3;3;
61815;PMS5003;57055;-35.296;149.168;2023-04-22T02:26:51;4;4;
61815;PMS5003;57055;-35.296;149.168;2023-04-22T02:29:20;3;3;
61815;PMS5003;57055;-35.296;149.168;2023-04-22T02:31:49;4;4;
61815;PMS5003;57055;-35.296;149.168;2023-04-22T02:34:18;3;3;
61815;PMS5003;57055;-35.296;149.168;2023-04-22T02:36:47;3;3;
61815;PMS5003;57055;-35.296;149.168;2023-04-22T02:39:15;3;3;
61815;PMS5003;57055;-35.296;149.168;2023-04-22T02:41:44;3;3;
61815;PMS5003;57055;-35.296;149.168;2023-04-22T02:44:12;3;3;
61815;PMS5003;57055;-35.296;149.168;2023-04-22T02:46:41;2;2;
61815;PMS5003;57055;-35.296;149.168;2023-04-22T02:49:10;3;3;
61815;PMS5003;57055;-35.296;149.168;2023-04-22T02:51:38;3;3;
61815;PMS5003;57055;-35.296;149.168;2023-04-22T02:54:07;1;1;
61815;PMS5003;57055;-35.296;149.168;2023-04-22T02:56:35;3;3;
61815;PMS5003;57055;-35.296;149.168;2023-04-22T02:59:04;2;2;
61815;PMS5003;57055;-35.296;149.168;2023-04-22T03:01:32;1;1;
61815;PMS5003;57055;-35.296;149.168;2023-04-22T03:04:02;2;2;
61815;PMS5003;57055;-35.296;149.168;2023-04-22T03:06:30;2;2;
61815;PMS5003;57055;-35.296;149.168;2023-04-22T03:08:59;3;3;
61815;PMS5003;57055;-35.296;149.168;2023-04-22T03:11:28;2;2;
61815;PMS5003;57055;-35.296;149.168;2023-04-22T03:13:57;2;2;
61815;PMS5003;57055;-35.296;149.168;2023-04-22T03:16:32;4;4;
61815;PMS5003;57055;-35.296;149.168;2023-04-22T03:19:01;1;1;
61815;PMS5003;57055;-35.296;149.168;2023-04-22T03:21:30;3;3;
61815;PMS5003;57055;-35.296;149.168;2023-04-22T03:23:58;3;3;
61815;PMS5003;57055;-35.296;149.168;2023-04-22T03:26:27;3;3;
61815;PMS5003;57055;-35.296;149.168;2023-04-22T03:28:55;4;4;
61815;PMS5003;57055;-35.296;149.168;2023-04-22T03:31:24;4;4;
61815;PMS5003;57055;-35.296;149.168;2023-04-22T03:33:52;4;2;
61815;PMS5003;57055;-35.296;149.168;2023-04-22T03:36:21;3;3;
61815;PMS5003;57055;-35.296;149.168;2023-04-22T03:38:49;3;3;
61815;PMS5003;57055;-35.296;149.168;2023-04-22T03:41:18;2;2;
61815;PMS5003;57055;-35.296;149.168;2023-04-22T03:43:47;4;2;
61815;PMS5003;57055;-35.296;149.168;2023-04-22T03:46:15;3;3;
61815;PMS5003;57055;-35.296;149.168;2023-04-22T03:48:44;1;1;
61815;PMS5003;57055;-35.296;149.168;2023-04-22T03:51:12;4;3;
61815;PMS5003;57055;-35.296;149.168;2023-04-22T03:53:41;3;3;
61815;PMS5003;57055;-35.296;149.168;2023-04-22T03:56:09;1;1;
61815;PMS5003;57055;-35.296;149.168;2023-04-22T03:58:38;2;2;
61815;PMS5003;57055;-35.296;149.168;2023-04-22T04:01:06;3;3;
61815;PMS5003;57055;-35.296;149.168;2023-04-22T04:03:35;4;3;
61815;PMS5003;57055;-35.296;149.168;2023-04-22T04:06:04;2;2;
61815;PMS5003;57055;-35.296;149.168;2023-04-22T04:08:33;2;2;
61815;PMS5003;57055;-35.296;149.168;2023-04-22T04:11:01;1;1;
61815;PMS5003;57055;-35.296;149.168;2023-04-22T04:13:31;2;2;
61815;PMS5003;57055;-35.296;149.168;2023-04-22T04:16:00;4;1;
61815;PMS5003;57055;-35.296;149.168;2023-04-22T04:18:29;2;2;
61815;PMS5003;57055;-35.296;149.168;2023-04-22T04:20:57;2;2;
61815;PMS5003;57055;-35.296;149.168;2023-04-22T04:23:26;2;2;
61815;PMS5003;57055;-35.296;149.168;2023-04-22T04:25:56;2;2;
61815;PMS5003;57055;-35.296;149.168;2023-04-22T04:28:25;4;3;
61815;PMS5003;57055;-35.296;149.168;2023-04-22T04:30:53;2;2;
61815;PMS5003;57055;-35.296;149.168;2023-04-22T04:33:22;3;3;
61815;PMS5003;57055;-35.296;149.168;2023-04-22T04:35:50;1;1;
61815;PMS5003;57055;-35.296;149.168;2023-04-22T04:38:20;2;2;
61815;PMS5003;57055;-35.296;149.168;2023-04-22T04:40:49;5;4;
61815;PMS5003;57055;-35.296;149.168;2023-04-22T04:43:19;2;2;
61815;PMS5003;57055;-35.296;149.168;2023-04-22T04:45:47;3;2;
61815;PMS5003;57055;-35.296;149.168;2023-04-22T04:48:16;4;2;
61815;PMS5003;57055;-35.296;149.168;2023-04-22T04:50:45;2;2;
61815;PMS5003;57055;-35.296;149.168;2023-04-22T04:53:14;3;3;
61815;PMS5003;57055;-35.296;149.168;2023-04-22T04:55:42;2;2;
61815;PMS5003;57055;-35.296;149.168;2023-04-22T04:58:11;2;2;
61815;PMS5003;57055;-35.296;149.168;2023-04-22T05:00:40;3;3;
61815;PMS5003;57055;-35.296;149.168;2023-04-22T05:03:09;3;3;
61815;PMS5003;57055;-35.296;149.168;2023-04-22T05:05:37;3;3;
61815;PMS5003;57055;-35.296;149.168;2023-04-22T05:08:07;2;2;
61815;PMS5003;57055;-35.296;149.168;2023-04-22T05:10:36;2;2;
61815;PMS5003;57055;-35.296;149.168;2023-04-22T05:13:05;4;3;
61815;PMS5003;57055;-35.296;149.168;2023-04-22T05:15:33;3;3;
61815;PMS5003;57055;-35.296;149.168;2023-04-22T05:18:03;3;3;
61815;PMS5003;57055;-35.296;149.168;2023-04-22T05:20:31;3;3;
61815;PMS5003;57055;-35.296;149.168;2023-04-22T05:23:00;2;2;
61815;PMS5003;57055;-35.296;149.168;2023-04-22T05:25:28;2;2;
61815;PMS5003;57055;-35.296;149.168;2023-04-22T05:27:57;2;2;
61815;PMS5003;57055;-35.296;149.168;2023-04-22T05:30:26;3;1;
61815;PMS5003;57055;-35.296;149.168;2023-04-22T05:32:54;2;2;
61815;PMS5003;57055;-35.296;149.168;2023-04-22T05:35:23;2;2;
61815;PMS5003;57055;-35.296;149.168;2023-04-22T05:37:51;2;2;
61815;PMS5003;57055;-35.296;149.168;2023-04-22T05:40:20;3;3;
61815;PMS5003;57055;-35.296;149.168;2023-04-22T05:42:49;3;3;
61815;PMS5003;57055;-35.296;149.168;2023-04-22T05:45:18;4;4;
61815;PMS5003;57055;-35.296;149.168;2023-04-22T05:47:46;3;3;
61815;PMS5003;57055;-35.296;149.168;2023-04-22T05:50:15;2;2;
61815;PMS5003;57055;-35.296;149.168;2023-04-22T05:52:43;3;3;
61815;PMS5003;57055;-35.296;149.168;2023-04-22T05:55:12;5;3;
61815;PMS5003;57055;-35.296;149.168;2023-04-22T05:57:40;3;3;
61815;PMS5003;57055;-35.296;149.168;2023-04-22T06:00:09;4;3;
61815;PMS5003;57055;-35.296;149.168;2023-04-22T06:02:39;3;3;
61815;PMS5003;57055;-35.296;149.168;2023-04-22T06:05:08;2;2;
61815;PMS5003;57055;-35.296;149.168;2023-04-22T06:07:37;2;2;
61815;PMS5003;57055;-35.296;149.168;2023-04-22T06:10:07;2;2;
61815;PMS5003;57055;-35.296;149.168;2023-04-22T06:12:36;2;2;
61815;PMS5003;57055;-35.296;149.168;2023-04-22T06:15:05;2;2;
61815;PMS5003;57055;-35.296;149.168;2023-04-22T06:17:34;2;2;
61815;PMS5003;57055;-35.296;149.168;2023-04-22T06:20:04;2;2;
61815;PMS5003;57055;-35.296;149.168;2023-04-22T06:22:33;2;2;
61815;PMS5003;57055;-35.296;149.168;2023-04-22T06:25:02;2;2;
61815;PMS5003;57055;-35.296;149.168;2023-04-22T06:27:31;3;3;
61815;PMS5003;57055;-35.296;149.168;2023-04-22T06:29:59;2;2;
61815;PMS5003;57055;-35.296;149.168;2023-04-22T06:32:28;3;3;
61815;PMS5003;57055;-35.296;149.168;2023-04-22T06:34:56;3;3;
61815;PMS5003;57055;-35.296;149.168;2023-04-22T06:37:25;2;2;
61815;PMS5003;57055;-35.296;149.168;2023-04-22T06:39:54;2;2;
61815;PMS5003;57055;-35.296;149.168;2023-04-22T06:42:23;1;1;
61815;PMS5003;57055;-35.296;149.168;2023-04-22T06:44:52;2;2;
61815;PMS5003;57055;-35.296;149.168;2023-04-22T06:47:20;1;1;
61815;PMS5003;57055;-35.296;149.168;2023-04-22T06:49:49;1;1;
61815;PMS5003;57055;-35.296;149.168;2023-04-22T06:52:17;2;2;
61815;PMS5003;57055;-35.296;149.168;2023-04-22T06:54:46;2;2;
61815;PMS5003;57055;-35.296;149.168;2023-04-22T06:57:14;2;2;
61815;PMS5003;57055;-35.296;149.168;2023-04-22T06:59:43;1;1;
61815;PMS5003;57055;-35.296;149.168;2023-04-22T07:02:12;2;2;
61815;PMS5003;57055;-35.296;149.168;2023-04-22T07:04:40;4;4;
61815;PMS5003;57055;-35.296;149.168;2023-04-22T07:07:09;3;3;
61815;PMS5003;57055;-35.296;149.168;2023-04-22T07:09:37;4;3;
61815;PMS5003;57055;-35.296;149.168;2023-04-22T07:12:06;3;3;
61815;PMS5003;57055;-35.296;149.168;2023-04-22T07:14:36;9;7;
61815;PMS5003;57055;-35.296;149.168;2023-04-22T07:17:08;10;10;
61815;PMS5003;57055;-35.296;149.168;2023-04-22T07:19:38;8;8;
61815;PMS5003;57055;-35.296;149.168;2023-04-22T07:22:07;6;6;
61815;PMS5003;57055;-35.296;149.168;2023-04-22T07:24:36;6;6;
61815;PMS5003;57055;-35.296;149.168;2023-04-22T07:27:04;7;7;
61815;PMS5003;57055;-35.296;149.168;2023-04-22T07:29:33;6;6;
61815;PMS5003;57055;-35.296;149.168;2023-04-22T07:32:02;5;5;
61815;PMS5003;57055;-35.296;149.168;2023-04-22T07:34:31;7;7;
61815;PMS5003;57055;-35.296;149.168;2023-04-22T07:37:00;10;10;
61815;PMS5003;57055;-35.296;149.168;2023-04-22T07:39:28;14;14;
61815;PMS5003;57055;-35.296;149.168;2023-04-22T07:41:57;13;13;
61815;PMS5003;57055;-35.296;149.168;2023-04-22T07:44:26;7;5;
61815;PMS5003;57055;-35.296;149.168;2023-04-22T07:46:55;7;7;
61815;PMS5003;57055;-35.296;149.168;2023-04-22T07:49:25;4;4;
61815;PMS5003;57055;-35.296;149.168;2023-04-22T07:51:53;4;4;
61815;PMS5003;57055;-35.296;149.168;2023-04-22T07:54:23;6;6;
61815;PMS5003;57055;-35.296;149.168;2023-04-22T07:56:51;6;6;
61815;PMS5003;57055;-35.296;149.168;2023-04-22T07:59:20;5;5;
61815;PMS5003;57055;-35.296;149.168;2023-04-22T08:01:49;7;7;
61815;PMS5003;57055;-35.296;149.168;2023-04-22T08:04:18;11;10;
61815;PMS5003;57055;-35.296;149.168;2023-04-22T08:06:48;11;10;
61815;PMS5003;57055;-35.296;149.168;2023-04-22T08:09:16;9;9;
61815;PMS5003;57055;-35.296;149.168;2023-04-22T08:11:45;7;7;
61815;PMS5003;57055;-35.296;149.168;2023-04-22T08:14:14;7;7;
61815;PMS5003;57055;-35.296;149.168;2023-04-22T08:16:43;5;5;
61815;PMS5003;57055;-35.296;149.168;2023-04-22T08:19:12;11;11;
61815;PMS5003;57055;-35.296;149.168;2023-04-22T08:21:40;8;8;
61815;PMS5003;57055;-35.296;149.168;2023-04-22T08:24:10;6;6;
61815;PMS5003;57055;-35.296;149.168;2023-04-22T08:26:39;7;7;
61815;PMS5003;57055;-35.296;149.168;2023-04-22T08:29:08;4;4;
61815;PMS5003;57055;-35.296;149.168;2023-04-22T08:31:37;6;6;
61815;PMS5003;57055;-35.296;149.168;2023-04-22T08:34:06;8;8;
61815;PMS5003;57055;-35.296;149.168;2023-04-22T08:36:35;9;9;
61815;PMS5003;57055;-35.296;149.168;2023-04-22T08:39:03;12;12;
61815;PMS5003;57055;-35.296;149.168;2023-04-22T08:41:33;9;9;
61815;PMS5003;57055;-35.296;149.168;2023-04-22T08:44:02;10;10;
61815;PMS5003;57055;-35.296;149.168;2023-04-22T08:46:32;5;5;
61815;PMS5003;57055;-35.296;149.168;2023-04-22T08:49:02;3;3;
61815;PMS5003;57055;-35.296;149.168;2023-04-22T08:51:31;3;3;
61815;PMS5003;57055;-35.296;149.168;2023-04-22T08:54:00;4;4;
61815;PMS5003;57055;-35.296;149.168;2023-04-22T08:56:28;2;2;
61815;PMS5003;57055;-35.296;149.168;2023-04-22T08:58:58;6;6;
61815;PMS5003;57055;-35.296;149.168;2023-04-22T09:01:27;5;5;
61815;PMS5003;57055;-35.296;149.168;2023-04-22T09:03:59;3;3;
61815;PMS5003;57055;-35.296;149.168;2023-04-22T09:06:28;2;2;
61815;PMS5003;57055;-35.296;149.168;2023-04-22T09:08:59;4;4;
61815;PMS5003;57055;-35.296;149.168;2023-04-22T09:11:29;3;3;
61815;PMS5003;57055;-35.296;149.168;2023-04-22T09:13:59;3;2;
61815;PMS5003;57055;-35.296;149.168;2023-04-22T09:16:29;2;2;
61815;PMS5003;57055;-35.296;149.168;2023-04-22T09:18:59;3;2;
61815;PMS5003;57055;-35.296;149.168;2023-04-22T09:21:28;3;3;
61815;PMS5003;57055;-35.296;149.168;2023-04-22T09:24:01;3;3;
61815;PMS5003;57055;-35.296;149.168;2023-04-22T09:26:30;3;3;
61815;PMS5003;57055;-35.296;149.168;2023-04-22T09:28:59;3;3;
61815;PMS5003;57055;-35.296;149.168;2023-04-22T09:31:27;3;3;
61815;PMS5003;57055;-35.296;149.168;2023-04-22T09:33:57;3;3;
61815;PMS5003;57055;-35.296;149.168;2023-04-22T09:36:27;2;2;
61815;PMS5003;57055;-35.296;149.168;2023-04-22T09:38:57;4;4;
61815;PMS5003;57055;-35.296;149.168;2023-04-22T09:41:27;1;1;
61815;PMS5003;57055;-35.296;149.168;2023-04-22T09:43:56;4;4;
61815;PMS5003;57055;-35.296;149.168;2023-04-22T09:46:27;1;1;
61815;PMS5003;57055;-35.296;149.168;2023-04-22T09:48:57;3;3;
61815;PMS5003;57055;-35.296;149.168;2023-04-22T09:51:28;3;3;
61815;PMS5003;57055;-35.296;149.168;2023-04-22T09:53:57;3;2;
61815;PMS5003;57055;-35.296;149.168;2023-04-22T09:56:44;2;2;
61815;PMS5003;57055;-35.296;149.168;2023-04-22T09:59:19;4;3;
61815;PMS5003;57055;-35.296;149.168;2023-04-22T10:01:50;2;2;
61815;PMS5003;57055;-35.296;149.168;2023-04-22T10:04:22;3;3;
61815;PMS5003;57055;-35.296;149.168;2023-04-22T10:06:51;3;3;
61815;PMS5003;57055;-35.296;149.168;2023-04-22T10:09:22;3;3;
61815;PMS5003;57055;-35.296;149.168;2023-04-22T10:11:52;3;3;
61815;PMS5003;57055;-35.296;149.168;2023-04-22T10:14:22;3;3;
61815;PMS5003;57055;-35.296;149.168;2023-04-22T10:16:53;5;5;
61815;PMS5003;57055;-35.296;149.168;2023-04-22T10:19:26;4;4;
61815;PMS5003;57055;-35.296;149.168;2023-04-22T10:21:56;3;3;
61815;PMS5003;57055;-35.296;149.168;2023-04-22T10:24:27;3;3;
61815;PMS5003;57055;-35.296;149.168;2023-04-22T10:27:02;6;6;
61815;PMS5003;57055;-35.296;149.168;2023-04-22T10:29:35;4;4;
61815;PMS5003;57055;-35.296;149.168;2023-04-22T10:32:05;5;5;
61815;PMS5003;57055;-35.296;149.168;2023-04-22T10:35:05;5;5;
61815;PMS5003;57055;-35.296;149.168;2023-04-22T10:37:40;6;6;
61815;PMS5003;57055;-35.296;149.168;2023-04-22T10:40:10;5;5;
61815;PMS5003;57055;-35.296;149.168;2023-04-22T10:42:45;6;6;
61815;PMS5003;57055;-35.296;149.168;2023-04-22T10:45:19;6;6;
61815;PMS5003;57055;-35.296;149.168;2023-04-22T10:47:52;6;6;
61815;PMS5003;57055;-35.296;149.168;2023-04-22T10:50:23;9;7;
61815;PMS5003;57055;-35.296;149.168;2023-04-22T10:52:55;8;7;
61815;PMS5003;57055;-35.296;149.168;2023-04-22T10:55:28;3;3;
61815;PMS5003;57055;-35.296;149.168;2023-04-22T10:58:18;5;5;
61815;PMS5003;57055;-35.296;149.168;2023-04-22T11:00:47;8;8;
61815;PMS5003;57055;-35.296;149.168;2023-04-22T11:03:23;8;6;
61815;PMS5003;57055;-35.296;149.168;2023-04-22T11:06:12;5;5;
61815;PMS5003;57055;-35.296;149.168;2023-04-22T11:08:43;7;7;
61815;PMS5003;57055;-35.296;149.168;2023-04-22T11:11:13;6;6;
61815;PMS5003;57055;-35.296;149.168;2023-04-22T11:13:45;5;5;
61815;PMS5003;57055;-35.296;149.168;2023-04-22T11:16:14;5;5;
61815;PMS5003;57055;-35.296;149.168;2023-04-22T11:18:44;6;5;
61815;PMS5003;57055;-35.296;149.168;2023-04-22T11:21:14;4;4;
61815;PMS5003;57055;-35.296;149.168;2023-04-22T11:23:48;4;4;
61815;PMS5003;57055;-35.296;149.168;2023-04-22T11:26:18;4;4;
61815;PMS5003;57055;-35.296;149.168;2023-04-22T11:28:58;4;4;
61815;PMS5003;57055;-35.296;149.168;2023-04-22T11:31:27;4;3;
61815;PMS5003;57055;-35.296;149.168;2023-04-22T11:33:57;4;4;
61815;PMS5003;57055;-35.296;149.168;2023-04-22T11:36:26;4;2;
61815;PMS5003;57055;-35.296;149.168;2023-04-22T11:38:55;3;3;
61815;PMS5003;57055;-35.296;149.168;2023-04-22T11:41:24;4;3;
61815;PMS5003;57055;-35.296;149.168;2023-04-22T11:43:53;3;3;
61815;PMS5003;57055;-35.296;149.168;2023-04-22T11:46:29;3;3;
61815;PMS5003;57055;-35.296;149.168;2023-04-22T11:49:12;3;3;
61815;PMS5003;57055;-35.296;149.168;2023-04-22T11:51:58;3;3;
61815;PMS5003;57055;-35.296;149.168;2023-04-22T11:54:30;4;4;
61815;PMS5003;57055;-35.296;149.168;2023-04-22T11:57:01;5;5;
61815;PMS5003;57055;-35.296;149.168;2023-04-22T11:59:32;3;3;
61815;PMS5003;57055;-35.296;149.168;2023-04-22T12:02:04;3;3;
61815;PMS5003;57055;-35.296;149.168;2023-04-22T12:04:35;2;2;
61815;PMS5003;57055;-35.296;149.168;2023-04-22T12:07:04;4;4;
61815;PMS5003;57055;-35.296;149.168;2023-04-22T12:09:33;5;5;
61815;PMS5003;57055;-35.296;149.168;2023-04-22T12:12:04;3;3;
61815;PMS5003;57055;-35.296;149.168;2023-04-22T12:14:33;4;4;
61815;PMS5003;57055;-35.296;149.168;2023-04-22T12:17:02;4;4;
61815;PMS5003;57055;-35.296;149.168;2023-04-22T12:19:34;4;4;
61815;PMS5003;57055;-35.296;149.168;2023-04-22T12:22:04;3;3;
61815;PMS5003;57055;-35.296;149.168;2023-04-22T12:24:33;2;2;
61815;PMS5003;57055;-35.296;149.168;2023-04-22T12:27:02;5;3;
61815;PMS5003;57055;-35.296;149.168;2023-04-22T12:29:31;3;3;
61815;PMS5003;57055;-35.296;149.168;2023-04-22T12:32:00;3;3;
61815;PMS5003;57055;-35.296;149.168;2023-04-22T12:34:29;3;3;
61815;PMS5003;57055;-35.296;149.168;2023-04-22T12:36:58;5;4;
61815;PMS5003;57055;-35.296;149.168;2023-04-22T12:39:27;5;5;
61815;PMS5003;57055;-35.296;149.168;2023-04-22T12:41:56;5;5;
61815;PMS5003;57055;-35.296;149.168;2023-04-22T12:44:25;2;2;
61815;PMS5003;57055;-35.296;149.168;2023-04-22T12:46:54;6;4;
61815;PMS5003;57055;-35.296;149.168;2023-04-22T12:49:23;5;5;
61815;PMS5003;57055;-35.296;149.168;2023-04-22T12:51:52;5;4;
61815;PMS5003;57055;-35.296;149.168;2023-04-22T12:54:21;5;5;
61815;PMS5003;57055;-35.296;149.168;2023-04-22T12:56:50;6;6;
61815;PMS5003;57055;-35.296;149.168;2023-04-22T12:59:19;6;5;
61815;PMS5003;57055;-35.296;149.168;2023-04-22T13:01:47;5;5;
61815;PMS5003;57055;-35.296;149.168;2023-04-22T13:04:17;6;6;
61815;PMS5003;57055;-35.296;149.168;2023-04-22T13:06:47;5;5;
61815;PMS5003;57055;-35.296;149.168;2023-04-22T13:09:15;4;4;
61815;PMS5003;57055;-35.296;149.168;2023-04-22T13:11:44;8;5;
61815;PMS5003;57055;-35.296;149.168;2023-04-22T13:14:13;5;5;
61815;PMS5003;57055;-35.296;149.168;2023-04-22T13:16:42;4;4;
61815;PMS5003;57055;-35.296;149.168;2023-04-22T13:19:11;5;3;
61815;PMS5003;57055;-35.296;149.168;2023-04-22T13:21:40;5;5;
61815;PMS5003;57055;-35.296;149.168;2023-04-22T13:24:09;4;4;
61815;PMS5003;57055;-35.296;149.168;2023-04-22T13:26:37;4;4;
61815;PMS5003;57055;-35.296;149.168;2023-04-22T13:29:06;5;5;
61815;PMS5003;57055;-35.296;149.168;2023-04-22T13:31:35;3;3;
61815;PMS5003;57055;-35.296;149.168;2023-04-22T13:34:04;3;3;
61815;PMS5003;57055;-35.296;149.168;2023-04-22T13:36:33;4;4;
61815;PMS5003;57055;-35.296;149.168;2023-04-22T13:39:03;4;4;
61815;PMS5003;57055;-35.296;149.168;2023-04-22T13:41:33;4;4;
61815;PMS5003;57055;-35.296;149.168;2023-04-22T13:44:02;3;3;
61815;PMS5003;57055;-35.296;149.168;2023-04-22T13:46:31;4;4;
61815;PMS5003;57055;-35.296;149.168;2023-04-22T13:49:00;5;5;
61815;PMS5003;57055;-35.296;149.168;2023-04-22T13:51:29;6;6;
61815;PMS5003;57055;-35.296;149.168;2023-04-22T13:53:58;4;4;
61815;PMS5003;57055;-35.296;149.168;2023-04-22T13:56:27;4;4;
61815;PMS5003;57055;-35.296;149.168;2023-04-22T13:58:56;4;4;
61815;PMS5003;57055;-35.296;149.168;2023-04-22T14:01:26;4;4;
61815;PMS5003;57055;-35.296;149.168;2023-04-22T14:03:55;5;5;
61815;PMS5003;57055;-35.296;149.168;2023-04-22T14:06:24;4;4;
61815;PMS5003;57055;-35.296;149.168;2023-04-22T14:08:53;4;4;
61815;PMS5003;57055;-35.296;149.168;2023-04-22T14:11:23;5;5;
61815;PMS5003;57055;-35.296;149.168;2023-04-22T14:13:51;5;5;
61815;PMS5003;57055;-35.296;149.168;2023-04-22T14:16:20;6;5;
61815;PMS5003;57055;-35.296;149.168;2023-04-22T14:18:49;4;4;
61815;PMS5003;57055;-35.296;149.168;2023-04-22T14:21:18;4;4;
61815;PMS5003;57055;-35.296;149.168;2023-04-22T14:23:47;3;3;
61815;PMS5003;57055;-35.296;149.168;2023-04-22T14:26:15;5;5;
61815;PMS5003;57055;-35.296;149.168;2023-04-22T14:28:44;3;3;
61815;PMS5003;57055;-35.296;149.168;2023-04-22T14:31:13;3;3;
61815;PMS5003;57055;-35.296;149.168;2023-04-22T14:33:42;4;4;
61815;PMS5003;57055;-35.296;149.168;2023-04-22T14:36:10;5;5;
61815;PMS5003;57055;-35.296;149.168;2023-04-22T14:38:39;4;4;
61815;PMS5003;57055;-35.296;149.168;2023-04-22T14:41:08;2;2;
61815;PMS5003;57055;-35.296;149.168;2023-04-22T14:43:37;6;4;
61815;PMS5003;57055;-35.296;149.168;2023-04-22T14:46:05;5;5;
61815;PMS5003;57055;-35.296;149.168;2023-04-22T14:48:35;3;3;
61815;PMS5003;57055;-35.296;149.168;2023-04-22T14:51:04;4;3;
61815;PMS5003;57055;-35.296;149.168;2023-04-22T14:53:33;5;4;
61815;PMS5003;57055;-35.296;149.168;2023-04-22T14:56:01;3;3;
61815;PMS5003;57055;-35.296;149.168;2023-04-22T14:58:30;4;4;
61815;PMS5003;57055;-35.296;149.168;2023-04-22T15:00:59;3;3;
61815;PMS5003;57055;-35.296;149.168;2023-04-22T15:03:28;4;4;
61815;PMS5003;57055;-35.296;149.168;2023-04-22T15:05:57;5;3;
61815;PMS5003;57055;-35.296;149.168;2023-04-22T15:08:25;3;3;
61815;PMS5003;57055;-35.296;149.168;2023-04-22T15:10:54;5;5;
61815;PMS5003;57055;-35.296;149.168;2023-04-22T15:13:23;3;3;
61815;PMS5003;57055;-35.296;149.168;2023-04-22T15:15:52;5;5;
61815;PMS5003;57055;-35.296;149.168;2023-04-22T15:18:20;6;6;
61815;PMS5003;57055;-35.296;149.168;2023-04-22T15:20:49;5;5;
61815;PMS5003;57055;-35.296;149.168;2023-04-22T15:23:18;5;4;
61815;PMS5003;57055;-35.296;149.168;2023-04-22T15:25:47;4;3;
61815;PMS5003;57055;-35.296;149.168;2023-04-22T15:28:16;5;4;
61815;PMS5003;57055;-35.296;149.168;2023-04-22T15:30:44;5;5;
61815;PMS5003;57055;-35.296;149.168;2023-04-22T15:33:13;4;4;
61815;PMS5003;57055;-35.296;149.168;2023-04-22T15:35:42;3;3;
61815;PMS5003;57055;-35.296;149.168;2023-04-22T15:38:10;3;3;
61815;PMS5003;57055;-35.296;149.168;2023-04-22T15:40:39;4;4;
61815;PMS5003;57055;-35.296;149.168;2023-04-22T15:43:08;2;2;
61815;PMS5003;57055;-35.296;149.168;2023-04-22T15:45:37;3;3;
61815;PMS5003;57055;-35.296;149.168;2023-04-22T15:48:07;5;5;
61815;PMS5003;57055;-35.296;149.168;2023-04-22T15:50:36;3;3;
61815;PMS5003;57055;-35.296;149.168;2023-04-22T15:53:05;3;3;
61815;PMS5003;57055;-35.296;149.168;2023-04-22T15:55:34;3;3;
61815;PMS5003;57055;-35.296;149.168;2023-04-22T15:58:02;3;3;
61815;PMS5003;57055;-35.296;149.168;2023-04-22T16:00:31;6;5;
61815;PMS5003;57055;-35.296;149.168;2023-04-22T16:03:00;1;1;
61815;PMS5003;57055;-35.296;149.168;2023-04-22T16:05:30;3;3;
61815;PMS5003;57055;-35.296;149.168;2023-04-22T16:07:59;3;3;
61815;PMS5003;57055;-35.296;149.168;2023-04-22T16:10:27;5;5;
61815;PMS5003;57055;-35.296;149.168;2023-04-22T16:12:56;6;5;
61815;PMS5003;57055;-35.296;149.168;2023-04-22T16:15:25;6;6;